sensor_id;sensor_type;location;lat;lon;timestamp;P1;durP1;ratioP1;P2;durP2;ratioP2
35909;SDS011;22004;49.120;-0.200;2023-09-19T00:00:59;15.40;;;3.55;;
35909;SDS011;22004;49.120;-0.200;2023-09-19T00:03:24;21.05;;;3.50;;
35909;SDS011;22004;49.120;-0.200;2023-09-19T00:05:53;14.85;;;3.50;;
35909;SDS011;22004;49.120;-0.200;2023-09-19T00:08:20;12.80;;;3.10;;
35909;SDS011;22004;49.120;-0.200;2023-09-19T00:10:49;15.15;;;2.88;;
35909;SDS011;22004;49.120;-0.200;2023-09-19T00:13:15;13.98;;;2.58;;
35909;SDS011;22004;49.120;-0.200;2023-09-19T00:15:42;13.48;;;3.13;;
35909;SDS011;22004;49.120;-0.200;2023-09-19T00:18:20;14.52;;;3.15;;
35909;SDS011;22004;49.120;-0.200;2023-09-19T00:20:46;16.45;;;2.90;;
35909;SDS011;22004;49.120;-0.200;2023-09-19T00:23:16;17.25;;;3.30;;
35909;SDS011;22004;49.120;-0.200;2023-09-19T00:25:41;11.82;;;3.03;;
35909;SDS011;22004;49.120;-0.200;2023-09-19T00:28:07;17.50;;;2.88;;
35909;SDS011;22004;49.120;-0.200;2023-09-19T00:30:33;16.20;;;3.03;;
35909;SDS011;22004;49.120;-0.200;2023-09-19T00:32:58;14.82;;;3.17;;
35909;SDS011;22004;49.120;-0.200;2023-09-19T00:35:25;10.88;;;2.70;;
35909;SDS011;22004;49.120;-0.200;2023-09-19T00:37:52;11.30;;;2.90;;
35909;SDS011;22004;49.120;-0.200;2023-09-19T00:40:18;17.40;;;3.55;;
35909;SDS011;22004;49.120;-0.200;2023-09-19T00:42:45;11.93;;;2.50;;
35909;SDS011;22004;49.120;-0.200;2023-09-19T00:45:12;10.10;;;2.90;;
35909;SDS011;22004;49.120;-0.200;2023-09-19T00:47:39;16.80;;;3.63;;
35909;SDS011;22004;49.120;-0.200;2023-09-19T00:50:06;11.13;;;3.42;;
35909;SDS011;22004;49.120;-0.200;2023-09-19T00:52:34;10.57;;;3.38;;
35909;SDS011;22004;49.120;-0.200;2023-09-19T00:55:01;13.38;;;3.10;;
35909;SDS011;22004;49.120;-0.200;2023-09-19T00:57:27;14.95;;;3.05;;
35909;SDS011;22004;49.120;-0.200;2023-09-19T00:59:57;10.05;;;2.55;;
35909;SDS011;22004;49.120;-0.200;2023-09-19T01:02:24;16.58;;;3.20;;
35909;SDS011;22004;49.120;-0.200;2023-09-19T01:04:52;11.85;;;2.95;;
35909;SDS011;22004;49.120;-0.200;2023-09-19T01:07:18;15.95;;;3.17;;
35909;SDS011;22004;49.120;-0.200;2023-09-19T01:09:44;11.32;;;2.50;;
35909;SDS011;22004;49.120;-0.200;2023-09-19T01:12:09;14.45;;;2.65;;
35909;SDS011;22004;49.120;-0.200;2023-09-19T01:14:44;12.13;;;2.55;;
35909;SDS011;22004;49.120;-0.200;2023-09-19T01:17:32;12.55;;;3.17;;
35909;SDS011;22004;49.120;-0.200;2023-09-19T01:20:11;15.63;;;2.90;;
35909;SDS011;22004;49.120;-0.200;2023-09-19T01:23:23;14.82;;;2.53;;
35909;SDS011;22004;49.120;-0.200;2023-09-19T01:26:05;16.80;;;3.47;;
35909;SDS011;22004;49.120;-0.200;2023-09-19T01:31:21;15.55;;;2.95;;
35909;SDS011;22004;49.120;-0.200;2023-09-19T01:34:01;15.73;;;2.78;;
35909;SDS011;22004;49.120;-0.200;2023-09-19T01:36:33;18.13;;;3.13;;
35909;SDS011;22004;49.120;-0.200;2023-09-19T01:39:02;21.17;;;3.28;;
35909;SDS011;22004;49.120;-0.200;2023-09-19T01:41:46;12.20;;;3.28;;
35909;SDS011;22004;49.120;-0.200;2023-09-19T01:44:17;13.50;;;3.00;;
35909;SDS011;22004;49.120;-0.200;2023-09-19T01:46:50;13.32;;;3.00;;
35909;SDS011;22004;49.120;-0.200;2023-09-19T01:49:27;12.15;;;2.88;;
35909;SDS011;22004;49.120;-0.200;2023-09-19T01:52:15;14.10;;;3.03;;
35909;SDS011;22004;49.120;-0.200;2023-09-19T01:54:55;14.65;;;2.80;;
35909;SDS011;22004;49.120;-0.200;2023-09-19T01:57:27;15.88;;;3.33;;
35909;SDS011;22004;49.120;-0.200;2023-09-19T02:00:16;19.85;;;3.47;;
35909;SDS011;22004;49.120;-0.200;2023-09-19T02:02:47;16.85;;;3.50;;
35909;SDS011;22004;49.120;-0.200;2023-09-19T02:05:13;17.20;;;3.35;;
35909;SDS011;22004;49.120;-0.200;2023-09-19T02:07:48;22.87;;;4.73;;
35909;SDS011;22004;49.120;-0.200;2023-09-19T02:10:14;14.48;;;2.70;;
35909;SDS011;22004;49.120;-0.200;2023-09-19T02:12:39;19.45;;;3.10;;
35909;SDS011;22004;49.120;-0.200;2023-09-19T02:15:04;21.52;;;3.38;;
35909;SDS011;22004;49.120;-0.200;2023-09-19T02:17:32;14.75;;;2.75;;
35909;SDS011;22004;49.120;-0.200;2023-09-19T02:19:57;14.60;;;3.33;;
35909;SDS011;22004;49.120;-0.200;2023-09-19T02:22:24;12.45;;;3.10;;
35909;SDS011;22004;49.120;-0.200;2023-09-19T02:24:50;13.20;;;2.95;;
35909;SDS011;22004;49.120;-0.200;2023-09-19T02:27:15;16.85;;;3.15;;
35909;SDS011;22004;49.120;-0.200;2023-09-19T02:29:41;16.08;;;2.90;;
35909;SDS011;22004;49.120;-0.200;2023-09-19T02:32:07;17.63;;;3.20;;
35909;SDS011;22004;49.120;-0.200;2023-09-19T02:34:34;20.90;;;3.38;;
35909;SDS011;22004;49.120;-0.200;2023-09-19T02:37:01;12.60;;;2.60;;
35909;SDS011;22004;49.120;-0.200;2023-09-19T02:39:35;15.65;;;3.10;;
35909;SDS011;22004;49.120;-0.200;2023-09-19T02:42:01;24.30;;;3.47;;
35909;SDS011;22004;49.120;-0.200;2023-09-19T02:44:29;14.20;;;2.85;;
35909;SDS011;22004;49.120;-0.200;2023-09-19T02:46:54;13.07;;;2.83;;
35909;SDS011;22004;49.120;-0.200;2023-09-19T02:49:19;8.93;;;2.28;;
35909;SDS011;22004;49.120;-0.200;2023-09-19T02:51:45;15.05;;;2.63;;
35909;SDS011;22004;49.120;-0.200;2023-09-19T02:54:13;15.35;;;2.78;;
35909;SDS011;22004;49.120;-0.200;2023-09-19T02:56:40;18.42;;;3.05;;
35909;SDS011;22004;49.120;-0.200;2023-09-19T02:59:05;15.38;;;3.05;;
35909;SDS011;22004;49.120;-0.200;2023-09-19T03:01:31;17.08;;;2.60;;
35909;SDS011;22004;49.120;-0.200;2023-09-19T03:03:57;23.30;;;3.22;;
35909;SDS011;22004;49.120;-0.200;2023-09-19T03:06:23;15.27;;;3.17;;
35909;SDS011;22004;49.120;-0.200;2023-09-19T03:08:49;16.73;;;3.10;;
35909;SDS011;22004;49.120;-0.200;2023-09-19T03:11:16;14.40;;;2.90;;
35909;SDS011;22004;49.120;-0.200;2023-09-19T03:13:46;9.90;;;2.90;;
35909;SDS011;22004;49.120;-0.200;2023-09-19T03:16:15;20.55;;;3.42;;
35909;SDS011;22004;49.120;-0.200;2023-09-19T03:18:41;18.60;;;2.70;;
35909;SDS011;22004;49.120;-0.200;2023-09-19T03:21:06;19.65;;;2.92;;
35909;SDS011;22004;49.120;-0.200;2023-09-19T03:23:32;20.60;;;3.25;;
35909;SDS011;22004;49.120;-0.200;2023-09-19T03:25:57;24.80;;;3.25;;
35909;SDS011;22004;49.120;-0.200;2023-09-19T03:28:24;17.55;;;3.03;;
35909;SDS011;22004;49.120;-0.200;2023-09-19T03:31:05;13.48;;;2.40;;
35909;SDS011;22004;49.120;-0.200;2023-09-19T03:33:31;18.45;;;3.10;;
35909;SDS011;22004;49.120;-0.200;2023-09-19T03:35:58;14.88;;;2.95;;
35909;SDS011;22004;49.120;-0.200;2023-09-19T03:38:24;15.60;;;3.28;;
35909;SDS011;22004;49.120;-0.200;2023-09-19T03:40:50;14.18;;;3.00;;
35909;SDS011;22004;49.120;-0.200;2023-09-19T03:43:15;9.45;;;2.47;;
35909;SDS011;22004;49.120;-0.200;2023-09-19T03:45:41;14.13;;;2.30;;
35909;SDS011;22004;49.120;-0.200;2023-09-19T03:48:10;8.15;;;2.28;;
35909;SDS011;22004;49.120;-0.200;2023-09-19T03:50:35;13.45;;;3.22;;
35909;SDS011;22004;49.120;-0.200;2023-09-19T03:53:01;12.55;;;2.65;;
35909;SDS011;22004;49.120;-0.200;2023-09-19T03:55:27;14.18;;;2.83;;
35909;SDS011;22004;49.120;-0.200;2023-09-19T03:57:52;14.50;;;3.40;;
35909;SDS011;22004;49.120;-0.200;2023-09-19T04:00:18;12.55;;;2.63;;
35909;SDS011;22004;49.120;-0.200;2023-09-19T04:02:46;9.23;;;2.22;;
35909;SDS011;22004;49.120;-0.200;2023-09-19T04:05:12;11.95;;;2.40;;
35909;SDS011;22004;49.120;-0.200;2023-09-19T04:07:38;20.60;;;2.80;;
35909;SDS011;22004;49.120;-0.200;2023-09-19T04:10:03;10.50;;;2.47;;
35909;SDS011;22004;49.120;-0.200;2023-09-19T04:12:29;12.57;;;2.72;;
35909;SDS011;22004;49.120;-0.200;2023-09-19T04:14:55;13.38;;;2.40;;
35909;SDS011;22004;49.120;-0.200;2023-09-19T04:17:20;13.75;;;2.58;;
35909;SDS011;22004;49.120;-0.200;2023-09-19T04:19:45;14.18;;;2.45;;
35909;SDS011;22004;49.120;-0.200;2023-09-19T04:22:11;15.30;;;2.70;;
35909;SDS011;22004;49.120;-0.200;2023-09-19T04:24:37;12.82;;;2.10;;
35909;SDS011;22004;49.120;-0.200;2023-09-19T04:27:03;15.07;;;2.80;;
35909;SDS011;22004;49.120;-0.200;2023-09-19T04:29:29;11.35;;;2.22;;
35909;SDS011;22004;49.120;-0.200;2023-09-19T04:31:55;13.00;;;2.28;;
35909;SDS011;22004;49.120;-0.200;2023-09-19T04:34:24;9.48;;;2.13;;
35909;SDS011;22004;49.120;-0.200;2023-09-19T04:36:49;15.60;;;2.58;;
35909;SDS011;22004;49.120;-0.200;2023-09-19T04:39:15;10.05;;;2.55;;
35909;SDS011;22004;49.120;-0.200;2023-09-19T04:41:40;12.13;;;2.13;;
35909;SDS011;22004;49.120;-0.200;2023-09-19T04:44:06;13.10;;;2.63;;
35909;SDS011;22004;49.120;-0.200;2023-09-19T04:46:32;11.48;;;2.33;;
35909;SDS011;22004;49.120;-0.200;2023-09-19T04:48:58;16.48;;;2.63;;
35909;SDS011;22004;49.120;-0.200;2023-09-19T04:51:23;12.90;;;2.60;;
35909;SDS011;22004;49.120;-0.200;2023-09-19T04:53:49;10.65;;;2.58;;
35909;SDS011;22004;49.120;-0.200;2023-09-19T04:56:14;14.23;;;2.70;;
35909;SDS011;22004;49.120;-0.200;2023-09-19T04:58:40;11.52;;;2.38;;
35909;SDS011;22004;49.120;-0.200;2023-09-19T05:01:05;19.02;;;3.95;;
35909;SDS011;22004;49.120;-0.200;2023-09-19T05:03:32;10.35;;;2.22;;
35909;SDS011;22004;49.120;-0.200;2023-09-19T05:05:57;13.13;;;2.40;;
35909;SDS011;22004;49.120;-0.200;2023-09-19T05:08:23;13.15;;;2.35;;
35909;SDS011;22004;49.120;-0.200;2023-09-19T05:10:49;10.25;;;3.03;;
35909;SDS011;22004;49.120;-0.200;2023-09-19T05:13:14;16.00;;;2.95;;
35909;SDS011;22004;49.120;-0.200;2023-09-19T05:15:40;13.00;;;3.03;;
35909;SDS011;22004;49.120;-0.200;2023-09-19T05:18:05;14.23;;;2.70;;
35909;SDS011;22004;49.120;-0.200;2023-09-19T05:20:31;10.00;;;2.20;;
35909;SDS011;22004;49.120;-0.200;2023-09-19T05:25:27;5.75;;;1.70;;
35909;SDS011;22004;49.120;-0.200;2023-09-19T05:27:55;11.95;;;2.45;;
35909;SDS011;22004;49.120;-0.200;2023-09-19T05:30:22;10.88;;;2.50;;
35909;SDS011;22004;49.120;-0.200;2023-09-19T05:32:48;14.98;;;2.30;;
35909;SDS011;22004;49.120;-0.200;2023-09-19T05:35:13;10.68;;;2.10;;
35909;SDS011;22004;49.120;-0.200;2023-09-19T05:37:39;10.18;;;2.55;;
35909;SDS011;22004;49.120;-0.200;2023-09-19T05:40:04;8.68;;;2.08;;
35909;SDS011;22004;49.120;-0.200;2023-09-19T05:42:34;11.30;;;2.13;;
35909;SDS011;22004;49.120;-0.200;2023-09-19T05:44:59;9.70;;;2.10;;
35909;SDS011;22004;49.120;-0.200;2023-09-19T05:47:25;11.98;;;2.40;;
35909;SDS011;22004;49.120;-0.200;2023-09-19T05:49:50;12.00;;;2.13;;
35909;SDS011;22004;49.120;-0.200;2023-09-19T05:52:16;12.13;;;2.17;;
35909;SDS011;22004;49.120;-0.200;2023-09-19T05:54:42;11.27;;;1.88;;
35909;SDS011;22004;49.120;-0.200;2023-09-19T05:57:08;12.57;;;2.58;;
35909;SDS011;22004;49.120;-0.200;2023-09-19T05:59:33;13.93;;;2.85;;
35909;SDS011;22004;49.120;-0.200;2023-09-19T06:01:59;12.73;;;2.53;;
35909;SDS011;22004;49.120;-0.200;2023-09-19T06:04:25;11.90;;;2.45;;
35909;SDS011;22004;49.120;-0.200;2023-09-19T06:06:50;17.45;;;2.42;;
35909;SDS011;22004;49.120;-0.200;2023-09-19T06:09:16;9.00;;;2.00;;
35909;SDS011;22004;49.120;-0.200;2023-09-19T06:11:42;13.45;;;2.20;;
35909;SDS011;22004;49.120;-0.200;2023-09-19T06:14:07;13.68;;;2.30;;
35909;SDS011;22004;49.120;-0.200;2023-09-19T06:16:35;14.70;;;2.80;;
35909;SDS011;22004;49.120;-0.200;2023-09-19T06:19:02;9.02;;;2.05;;
35909;SDS011;22004;49.120;-0.200;2023-09-19T06:21:27;12.20;;;1.95;;
35909;SDS011;22004;49.120;-0.200;2023-09-19T06:23:53;7.60;;;2.33;;
35909;SDS011;22004;49.120;-0.200;2023-09-19T06:26:19;9.15;;;2.28;;
35909;SDS011;22004;49.120;-0.200;2023-09-19T06:28:44;8.18;;;2.28;;
35909;SDS011;22004;49.120;-0.200;2023-09-19T06:31:10;10.52;;;2.45;;
35909;SDS011;22004;49.120;-0.200;2023-09-19T06:33:36;10.90;;;2.33;;
35909;SDS011;22004;49.120;-0.200;2023-09-19T06:36:05;9.20;;;2.20;;
35909;SDS011;22004;49.120;-0.200;2023-09-19T06:38:31;14.00;;;2.10;;
35909;SDS011;22004;49.120;-0.200;2023-09-19T06:40:59;10.35;;;2.15;;
35909;SDS011;22004;49.120;-0.200;2023-09-19T06:43:26;12.57;;;2.83;;
35909;SDS011;22004;49.120;-0.200;2023-09-19T06:45:53;11.30;;;2.53;;
35909;SDS011;22004;49.120;-0.200;2023-09-19T06:48:19;10.63;;;3.03;;
35909;SDS011;22004;49.120;-0.200;2023-09-19T06:50:46;11.38;;;2.45;;
35909;SDS011;22004;49.120;-0.200;2023-09-19T06:53:13;14.52;;;2.30;;
35909;SDS011;22004;49.120;-0.200;2023-09-19T06:55:38;13.02;;;2.55;;
35909;SDS011;22004;49.120;-0.200;2023-09-19T06:58:03;15.98;;;2.78;;
35909;SDS011;22004;49.120;-0.200;2023-09-19T07:00:31;16.98;;;2.50;;
35909;SDS011;22004;49.120;-0.200;2023-09-19T07:02:59;16.27;;;2.60;;
35909;SDS011;22004;49.120;-0.200;2023-09-19T07:05:29;19.92;;;3.03;;
35909;SDS011;22004;49.120;-0.200;2023-09-19T07:07:56;13.43;;;3.10;;
35909;SDS011;22004;49.120;-0.200;2023-09-19T07:10:25;19.55;;;2.80;;
35909;SDS011;22004;49.120;-0.200;2023-09-19T07:12:58;17.02;;;3.20;;
35909;SDS011;22004;49.120;-0.200;2023-09-19T07:15:37;18.15;;;3.58;;
35909;SDS011;22004;49.120;-0.200;2023-09-19T07:18:11;17.13;;;2.70;;
35909;SDS011;22004;49.120;-0.200;2023-09-19T07:20:37;12.35;;;2.17;;
35909;SDS011;22004;49.120;-0.200;2023-09-19T07:23:03;15.15;;;2.70;;
35909;SDS011;22004;49.120;-0.200;2023-09-19T07:25:28;17.52;;;3.08;;
35909;SDS011;22004;49.120;-0.200;2023-09-19T07:27:55;17.08;;;2.88;;
35909;SDS011;22004;49.120;-0.200;2023-09-19T07:30:21;16.13;;;2.80;;
35909;SDS011;22004;49.120;-0.200;2023-09-19T07:32:47;13.35;;;2.70;;
35909;SDS011;22004;49.120;-0.200;2023-09-19T07:35:12;28.08;;;3.22;;
35909;SDS011;22004;49.120;-0.200;2023-09-19T07:37:38;19.27;;;3.15;;
35909;SDS011;22004;49.120;-0.200;2023-09-19T07:40:04;14.82;;;2.67;;
35909;SDS011;22004;49.120;-0.200;2023-09-19T07:42:34;17.70;;;3.00;;
35909;SDS011;22004;49.120;-0.200;2023-09-19T07:45:01;20.25;;;3.00;;
35909;SDS011;22004;49.120;-0.200;2023-09-19T07:47:28;24.48;;;3.22;;
35909;SDS011;22004;49.120;-0.200;2023-09-19T07:49:55;16.70;;;2.95;;
35909;SDS011;22004;49.120;-0.200;2023-09-19T07:52:20;14.73;;;2.35;;
35909;SDS011;22004;49.120;-0.200;2023-09-19T07:54:47;17.05;;;3.03;;
35909;SDS011;22004;49.120;-0.200;2023-09-19T07:57:14;15.82;;;3.20;;
35909;SDS011;22004;49.120;-0.200;2023-09-19T07:59:40;16.20;;;2.70;;
35909;SDS011;22004;49.120;-0.200;2023-09-19T08:02:07;17.17;;;2.83;;
35909;SDS011;22004;49.120;-0.200;2023-09-19T08:04:40;15.52;;;2.85;;
35909;SDS011;22004;49.120;-0.200;2023-09-19T08:07:07;18.08;;;3.22;;
35909;SDS011;22004;49.120;-0.200;2023-09-19T08:09:33;16.45;;;3.25;;
35909;SDS011;22004;49.120;-0.200;2023-09-19T08:11:59;18.05;;;2.60;;
35909;SDS011;22004;49.120;-0.200;2023-09-19T08:14:27;15.73;;;3.05;;
35909;SDS011;22004;49.120;-0.200;2023-09-19T08:16:56;23.15;;;3.67;;
35909;SDS011;22004;49.120;-0.200;2023-09-19T08:19:23;19.80;;;3.22;;
35909;SDS011;22004;49.120;-0.200;2023-09-19T08:21:55;24.13;;;3.65;;
35909;SDS011;22004;49.120;-0.200;2023-09-19T08:24:23;18.58;;;3.38;;
35909;SDS011;22004;49.120;-0.200;2023-09-19T08:26:49;24.17;;;3.22;;
35909;SDS011;22004;49.120;-0.200;2023-09-19T08:29:16;15.00;;;2.78;;
35909;SDS011;22004;49.120;-0.200;2023-09-19T08:31:42;10.48;;;2.72;;
35909;SDS011;22004;49.120;-0.200;2023-09-19T08:34:08;28.30;;;3.03;;
35909;SDS011;22004;49.120;-0.200;2023-09-19T08:36:33;14.55;;;2.90;;
35909;SDS011;22004;49.120;-0.200;2023-09-19T08:39:00;19.48;;;2.92;;
35909;SDS011;22004;49.120;-0.200;2023-09-19T08:41:25;15.40;;;2.90;;
35909;SDS011;22004;49.120;-0.200;2023-09-19T08:43:51;15.38;;;3.00;;
35909;SDS011;22004;49.120;-0.200;2023-09-19T08:46:16;22.80;;;3.55;;
35909;SDS011;22004;49.120;-0.200;2023-09-19T08:49:07;17.15;;;3.10;;
35909;SDS011;22004;49.120;-0.200;2023-09-19T08:51:39;18.92;;;2.85;;
35909;SDS011;22004;49.120;-0.200;2023-09-19T08:54:24;16.27;;;2.70;;
35909;SDS011;22004;49.120;-0.200;2023-09-19T08:56:54;17.80;;;2.78;;
35909;SDS011;22004;49.120;-0.200;2023-09-19T08:59:22;12.23;;;2.30;;
35909;SDS011;22004;49.120;-0.200;2023-09-19T09:01:52;17.88;;;3.17;;
35909;SDS011;22004;49.120;-0.200;2023-09-19T09:04:19;14.25;;;2.47;;
35909;SDS011;22004;49.120;-0.200;2023-09-19T09:06:47;10.32;;;2.70;;
35909;SDS011;22004;49.120;-0.200;2023-09-19T09:09:15;18.95;;;3.40;;
35909;SDS011;22004;49.120;-0.200;2023-09-19T09:11:41;16.80;;;2.90;;
35909;SDS011;22004;49.120;-0.200;2023-09-19T09:14:07;16.13;;;2.85;;
35909;SDS011;22004;49.120;-0.200;2023-09-19T09:16:32;15.63;;;2.75;;
35909;SDS011;22004;49.120;-0.200;2023-09-19T09:18:59;19.40;;;3.42;;
35909;SDS011;22004;49.120;-0.200;2023-09-19T09:21:25;15.43;;;2.42;;
35909;SDS011;22004;49.120;-0.200;2023-09-19T09:23:51;18.30;;;2.75;;
35909;SDS011;22004;49.120;-0.200;2023-09-19T09:29:03;17.30;;;3.20;;
35909;SDS011;22004;49.120;-0.200;2023-09-19T09:31:29;16.90;;;3.35;;
35909;SDS011;22004;49.120;-0.200;2023-09-19T09:33:55;16.38;;;2.42;;
35909;SDS011;22004;49.120;-0.200;2023-09-19T09:36:37;16.85;;;3.25;;
35909;SDS011;22004;49.120;-0.200;2023-09-19T09:39:04;14.63;;;3.05;;
35909;SDS011;22004;49.120;-0.200;2023-09-19T09:41:43;21.98;;;3.65;;
35909;SDS011;22004;49.120;-0.200;2023-09-19T09:44:14;18.00;;;3.13;;
35909;SDS011;22004;49.120;-0.200;2023-09-19T09:46:43;12.82;;;2.70;;
35909;SDS011;22004;49.120;-0.200;2023-09-19T09:49:18;13.30;;;2.83;;
35909;SDS011;22004;49.120;-0.200;2023-09-19T09:54:30;14.43;;;2.60;;
35909;SDS011;22004;49.120;-0.200;2023-09-19T09:57:02;19.73;;;3.67;;
35909;SDS011;22004;49.120;-0.200;2023-09-19T10:05:18;22.20;;;2.88;;
35909;SDS011;22004;49.120;-0.200;2023-09-19T10:07:45;18.92;;;3.78;;
35909;SDS011;22004;49.120;-0.200;2023-09-19T10:13:28;17.60;;;3.13;;
35909;SDS011;22004;49.120;-0.200;2023-09-19T10:15:56;21.02;;;3.95;;
35909;SDS011;22004;49.120;-0.200;2023-09-19T10:18:30;19.23;;;4.10;;
35909;SDS011;22004;49.120;-0.200;2023-09-19T10:21:01;26.58;;;4.15;;
35909;SDS011;22004;49.120;-0.200;2023-09-19T10:23:29;15.45;;;2.95;;
35909;SDS011;22004;49.120;-0.200;2023-09-19T10:25:59;19.17;;;3.58;;
35909;SDS011;22004;49.120;-0.200;2023-09-19T10:28:27;18.83;;;3.67;;
35909;SDS011;22004;49.120;-0.200;2023-09-19T10:30:54;16.27;;;3.65;;
35909;SDS011;22004;49.120;-0.200;2023-09-19T10:33:21;15.00;;;3.15;;
35909;SDS011;22004;49.120;-0.200;2023-09-19T10:35:51;20.00;;;3.30;;
35909;SDS011;22004;49.120;-0.200;2023-09-19T10:38:17;24.20;;;3.25;;
35909;SDS011;22004;49.120;-0.200;2023-09-19T10:40:48;21.65;;;4.18;;
35909;SDS011;22004;49.120;-0.200;2023-09-19T10:43:16;23.63;;;4.05;;
35909;SDS011;22004;49.120;-0.200;2023-09-19T10:45:46;18.17;;;3.72;;
35909;SDS011;22004;49.120;-0.200;2023-09-19T10:48:18;21.52;;;3.72;;
35909;SDS011;22004;49.120;-0.200;2023-09-19T10:53:45;21.17;;;3.40;;
35909;SDS011;22004;49.120;-0.200;2023-09-19T10:56:26;15.50;;;3.13;;
35909;SDS011;22004;49.120;-0.200;2023-09-19T10:59:18;21.98;;;3.50;;
35909;SDS011;22004;49.120;-0.200;2023-09-19T11:01:47;17.02;;;3.25;;
35909;SDS011;22004;49.120;-0.200;2023-09-19T11:04:32;19.50;;;3.70;;
35909;SDS011;22004;49.120;-0.200;2023-09-19T11:09:46;20.58;;;3.65;;
35909;SDS011;22004;49.120;-0.200;2023-09-19T11:14:57;14.15;;;3.30;;
35909;SDS011;22004;49.120;-0.200;2023-09-19T11:17:30;23.23;;;3.75;;
35909;SDS011;22004;49.120;-0.200;2023-09-19T11:30:36;19.60;;;3.70;;
35909;SDS011;22004;49.120;-0.200;2023-09-19T11:36:01;22.55;;;3.92;;
35909;SDS011;22004;49.120;-0.200;2023-09-19T11:41:52;18.38;;;4.80;;
35909;SDS011;22004;49.120;-0.200;2023-09-19T11:46:32;16.75;;;4.22;;
35909;SDS011;22004;49.120;-0.200;2023-09-19T11:49:05;18.90;;;4.95;;
35909;SDS011;22004;49.120;-0.200;2023-09-19T11:51:52;21.85;;;4.57;;
35909;SDS011;22004;49.120;-0.200;2023-09-19T11:54:19;21.38;;;4.45;;
35909;SDS011;22004;49.120;-0.200;2023-09-19T11:56:48;19.42;;;4.07;;
35909;SDS011;22004;49.120;-0.200;2023-09-19T11:59:22;20.75;;;4.30;;
35909;SDS011;22004;49.120;-0.200;2023-09-19T12:01:53;20.60;;;5.00;;
35909;SDS011;22004;49.120;-0.200;2023-09-19T12:04:43;18.17;;;4.40;;
35909;SDS011;22004;49.120;-0.200;2023-09-19T12:07:11;22.83;;;4.90;;
35909;SDS011;22004;49.120;-0.200;2023-09-19T12:09:40;19.33;;;3.97;;
35909;SDS011;22004;49.120;-0.200;2023-09-19T12:12:19;16.88;;;4.47;;
35909;SDS011;22004;49.120;-0.200;2023-09-19T12:14:49;15.50;;;4.97;;
35909;SDS011;22004;49.120;-0.200;2023-09-19T12:17:15;19.25;;;4.93;;
35909;SDS011;22004;49.120;-0.200;2023-09-19T12:19:52;23.27;;;4.65;;
35909;SDS011;22004;49.120;-0.200;2023-09-19T12:22:19;16.92;;;3.88;;
35909;SDS011;22004;49.120;-0.200;2023-09-19T12:24:47;19.17;;;5.15;;
35909;SDS011;22004;49.120;-0.200;2023-09-19T12:27:13;22.80;;;3.88;;
35909;SDS011;22004;49.120;-0.200;2023-09-19T12:29:46;21.95;;;4.47;;
35909;SDS011;22004;49.120;-0.200;2023-09-19T12:32:15;14.38;;;3.63;;
35909;SDS011;22004;49.120;-0.200;2023-09-19T12:34:50;20.38;;;4.78;;
35909;SDS011;22004;49.120;-0.200;2023-09-19T12:37:17;21.25;;;4.38;;
35909;SDS011;22004;49.120;-0.200;2023-09-19T12:39:47;18.30;;;4.30;;
35909;SDS011;22004;49.120;-0.200;2023-09-19T12:42:14;18.95;;;4.05;;
35909;SDS011;22004;49.120;-0.200;2023-09-19T12:44:42;16.80;;;3.88;;
35909;SDS011;22004;49.120;-0.200;2023-09-19T12:47:13;20.55;;;4.95;;
35909;SDS011;22004;49.120;-0.200;2023-09-19T12:52:48;19.55;;;3.88;;
35909;SDS011;22004;49.120;-0.200;2023-09-19T12:55:23;20.33;;;4.35;;
35909;SDS011;22004;49.120;-0.200;2023-09-19T12:58:07;23.00;;;4.95;;
35909;SDS011;22004;49.120;-0.200;2023-09-19T13:00:36;20.88;;;3.97;;
35909;SDS011;22004;49.120;-0.200;2023-09-19T13:05:50;19.15;;;3.80;;
35909;SDS011;22004;49.120;-0.200;2023-09-19T13:08:17;25.45;;;4.38;;
35909;SDS011;22004;49.120;-0.200;2023-09-19T13:13:51;19.42;;;4.55;;
35909;SDS011;22004;49.120;-0.200;2023-09-19T13:16:52;20.38;;;4.18;;
35909;SDS011;22004;49.120;-0.200;2023-09-19T13:19:34;22.58;;;3.90;;
35909;SDS011;22004;49.120;-0.200;2023-09-19T13:25:25;21.67;;;4.07;;
35909;SDS011;22004;49.120;-0.200;2023-09-19T13:27:53;12.75;;;3.63;;
35909;SDS011;22004;49.120;-0.200;2023-09-19T13:30:24;15.93;;;3.83;;
35909;SDS011;22004;49.120;-0.200;2023-09-19T13:33:05;18.00;;;4.00;;
35909;SDS011;22004;49.120;-0.200;2023-09-19T13:35:35;17.50;;;3.60;;
35909;SDS011;22004;49.120;-0.200;2023-09-19T13:38:03;17.75;;;3.38;;
35909;SDS011;22004;49.120;-0.200;2023-09-19T13:40:29;19.35;;;4.10;;
35909;SDS011;22004;49.120;-0.200;2023-09-19T13:43:00;27.17;;;4.25;;
35909;SDS011;22004;49.120;-0.200;2023-09-19T13:45:26;20.80;;;3.78;;
35909;SDS011;22004;49.120;-0.200;2023-09-19T13:47:52;21.15;;;4.13;;
35909;SDS011;22004;49.120;-0.200;2023-09-19T13:50:18;22.90;;;4.07;;
35909;SDS011;22004;49.120;-0.200;2023-09-19T13:52:48;22.77;;;4.60;;
35909;SDS011;22004;49.120;-0.200;2023-09-19T13:55:16;21.50;;;3.70;;
35909;SDS011;22004;49.120;-0.200;2023-09-19T13:57:47;21.05;;;3.85;;
35909;SDS011;22004;49.120;-0.200;2023-09-19T14:00:15;18.02;;;3.95;;
35909;SDS011;22004;49.120;-0.200;2023-09-19T14:02:41;21.33;;;4.28;;
35909;SDS011;22004;49.120;-0.200;2023-09-19T14:05:10;20.40;;;4.38;;
35909;SDS011;22004;49.120;-0.200;2023-09-19T14:07:39;28.10;;;4.28;;
35909;SDS011;22004;49.120;-0.200;2023-09-19T14:10:06;22.45;;;4.55;;
35909;SDS011;22004;49.120;-0.200;2023-09-19T14:12:35;17.30;;;4.30;;
35909;SDS011;22004;49.120;-0.200;2023-09-19T14:15:05;26.65;;;4.10;;
35909;SDS011;22004;49.120;-0.200;2023-09-19T14:17:32;17.27;;;3.97;;
35909;SDS011;22004;49.120;-0.200;2023-09-19T14:19:58;21.05;;;4.40;;
35909;SDS011;22004;49.120;-0.200;2023-09-19T14:22:23;16.98;;;3.75;;
35909;SDS011;22004;49.120;-0.200;2023-09-19T14:24:48;20.08;;;3.83;;
35909;SDS011;22004;49.120;-0.200;2023-09-19T14:27:13;20.15;;;4.30;;
35909;SDS011;22004;49.120;-0.200;2023-09-19T14:29:39;20.17;;;4.07;;
35909;SDS011;22004;49.120;-0.200;2023-09-19T14:32:06;20.45;;;3.92;;
35909;SDS011;22004;49.120;-0.200;2023-09-19T14:34:31;16.58;;;3.70;;
35909;SDS011;22004;49.120;-0.200;2023-09-19T14:36:57;13.75;;;3.17;;
35909;SDS011;22004;49.120;-0.200;2023-09-19T14:39:23;19.95;;;4.13;;
35909;SDS011;22004;49.120;-0.200;2023-09-19T14:41:49;22.55;;;4.53;;
35909;SDS011;22004;49.120;-0.200;2023-09-19T14:44:14;22.17;;;4.57;;
35909;SDS011;22004;49.120;-0.200;2023-09-19T14:46:43;16.27;;;4.07;;
35909;SDS011;22004;49.120;-0.200;2023-09-19T14:49:11;17.88;;;3.92;;
35909;SDS011;22004;49.120;-0.200;2023-09-19T14:51:37;21.63;;;4.15;;
35909;SDS011;22004;49.120;-0.200;2023-09-19T14:54:05;17.10;;;4.43;;
35909;SDS011;22004;49.120;-0.200;2023-09-19T14:56:32;21.15;;;4.47;;
35909;SDS011;22004;49.120;-0.200;2023-09-19T14:58:58;19.33;;;4.15;;
35909;SDS011;22004;49.120;-0.200;2023-09-19T15:01:23;21.17;;;3.90;;
35909;SDS011;22004;49.120;-0.200;2023-09-19T15:03:48;23.45;;;4.45;;
35909;SDS011;22004;49.120;-0.200;2023-09-19T15:06:14;18.45;;;3.85;;
35909;SDS011;22004;49.120;-0.200;2023-09-19T15:08:42;17.83;;;3.83;;
35909;SDS011;22004;49.120;-0.200;2023-09-19T15:11:12;19.80;;;4.32;;
35909;SDS011;22004;49.120;-0.200;2023-09-19T15:13:38;24.23;;;4.68;;
35909;SDS011;22004;49.120;-0.200;2023-09-19T15:16:04;19.20;;;4.10;;
35909;SDS011;22004;49.120;-0.200;2023-09-19T15:18:34;14.43;;;3.80;;
35909;SDS011;22004;49.120;-0.200;2023-09-19T15:21:06;20.65;;;4.30;;
35909;SDS011;22004;49.120;-0.200;2023-09-19T15:23:33;19.13;;;4.38;;
35909;SDS011;22004;49.120;-0.200;2023-09-19T15:26:02;16.90;;;4.25;;
35909;SDS011;22004;49.120;-0.200;2023-09-19T15:28:29;19.65;;;4.15;;